sensor_id;sensor_type;location;lat;lon;timestamp;pressure;altitude;pressure_sealevel;temperature;humidity
62942;BME280;49042;47.318;19.874;2022-07-23T00:01:17;100347.97;;;22.17;50.39
62942;BME280;49042;47.318;19.874;2022-07-23T00:04:27;100362.41;;;22.49;49.79
62942;BME280;49042;47.318;19.874;2022-07-23T00:07:30;100353.53;;;22.50;50.26
62942;BME280;49042;47.318;19.874;2022-07-23T00:10:32;100353.53;;;22.50;49.66
62942;BME280;49042;47.318;19.874;2022-07-23T00:13:34;100360.16;;;22.29;50.20
62942;BME280;49042;47.318;19.874;2022-07-23T00:16:35;100360.06;;;21.82;51.50
62942;BME280;49042;47.318;19.874;2022-07-23T00:19:37;100353.88;;;21.82;51.09
62942;BME280;49042;47.318;19.874;2022-07-23T00:22:59;100355.19;;;21.56;52.11
62942;BME280;49042;47.318;19.874;2022-07-23T00:26:01;100345.63;;;21.45;52.58
62942;BME280;49042;47.318;19.874;2022-07-23T00:29:03;100345.31;;;22.18;49.91
62942;BME280;49042;47.318;19.874;2022-07-23T00:32:05;100345.44;;;21.56;52.17
62942;BME280;49042;47.318;19.874;2022-07-23T00:35:07;100345.28;;;21.67;52.67
62942;BME280;49042;47.318;19.874;2022-07-23T00:38:10;100343.59;;;21.61;52.89
62942;BME280;49042;47.318;19.874;2022-07-23T00:41:12;100348.16;;;21.55;53.31
62942;BME280;49042;47.318;19.874;2022-07-23T00:44:25;100346.38;;;21.55;53.72
62942;BME280;49042;47.318;19.874;2022-07-23T00:47:27;100348.87;;;21.65;53.74
62942;BME280;49042;47.318;19.874;2022-07-23T00:50:29;100341.63;;;21.75;52.06
62942;BME280;49042;47.318;19.874;2022-07-23T00:53:31;100350.28;;;21.31;53.38
62942;BME280;49042;47.318;19.874;2022-07-23T00:56:34;100351.28;;;21.23;54.12
62942;BME280;49042;47.318;19.874;2022-07-23T00:59:38;100352.13;;;21.24;54.61
62942;BME280;49042;47.318;19.874;2022-07-23T01:02:40;100346.66;;;21.36;54.64
62942;BME280;49042;47.318;19.874;2022-07-23T01:05:42;100345.66;;;21.42;54.00
62942;BME280;49042;47.318;19.874;2022-07-23T01:08:44;100353.72;;;21.37;53.95
62942;BME280;49042;47.318;19.874;2022-07-23T01:11:47;100361.03;;;21.21;54.64
62942;BME280;49042;47.318;19.874;2022-07-23T01:14:56;100352.19;;;21.22;54.43
62942;BME280;49042;47.318;19.874;2022-07-23T01:17:58;100346.03;;;21.17;54.43
62942;BME280;49042;47.318;19.874;2022-07-23T01:21:01;100349.53;;;21.21;55.61
62942;BME280;49042;47.318;19.874;2022-07-23T01:24:03;100343.25;;;21.28;54.37
62942;BME280;49042;47.318;19.874;2022-07-23T01:27:05;100335.28;;;21.28;54.77
62942;BME280;49042;47.318;19.874;2022-07-23T01:30:07;100334.41;;;21.27;54.70
62942;BME280;49042;47.318;19.874;2022-07-23T01:33:09;100338.19;;;21.11;55.69
62942;BME280;49042;47.318;19.874;2022-07-23T01:36:11;100338.75;;;21.32;55.59
62942;BME280;49042;47.318;19.874;2022-07-23T01:39:13;100339.00;;;21.16;55.87
62942;BME280;49042;47.318;19.874;2022-07-23T01:42:17;100340.06;;;21.05;55.84
62942;BME280;49042;47.318;19.874;2022-07-23T01:45:20;100337.66;;;20.82;55.98
62942;BME280;49042;47.318;19.874;2022-07-23T01:48:23;100333.81;;;21.08;55.51
62942;BME280;49042;47.318;19.874;2022-07-23T01:51:24;100334.97;;;20.86;56.31
62942;BME280;49042;47.318;19.874;2022-07-23T01:54:31;100330.81;;;20.65;56.69
62942;BME280;49042;47.318;19.874;2022-07-23T01:57:33;100323.62;;;20.76;56.65
62942;BME280;49042;47.318;19.874;2022-07-23T02:00:35;100326.16;;;20.84;55.99
62942;BME280;49042;47.318;19.874;2022-07-23T02:03:37;100317.44;;;20.74;56.59
62942;BME280;49042;47.318;19.874;2022-07-23T02:06:39;100329.06;;;20.65;58.04
62942;BME280;49042;47.318;19.874;2022-07-23T02:09:40;100322.97;;;20.57;58.50
62942;BME280;49042;47.318;19.874;2022-07-23T02:12:42;100317.53;;;20.70;57.03
62942;BME280;49042;47.318;19.874;2022-07-23T02:15:46;100328.03;;;20.74;57.42
62942;BME280;49042;47.318;19.874;2022-07-23T02:18:48;100332.28;;;20.90;57.72
62942;BME280;49042;47.318;19.874;2022-07-23T02:21:52;100332.31;;;20.86;57.15
62942;BME280;49042;47.318;19.874;2022-07-23T02:24:54;100327.00;;;20.86;57.11
62942;BME280;49042;47.318;19.874;2022-07-23T02:27:55;100326.59;;;21.20;55.93
62942;BME280;49042;47.318;19.874;2022-07-23T02:30:57;100330.69;;;21.39;55.02
62942;BME280;49042;47.318;19.874;2022-07-23T02:34:00;100327.28;;;21.31;55.47
62942;BME280;49042;47.318;19.874;2022-07-23T02:37:01;100336.88;;;20.76;57.41
62942;BME280;49042;47.318;19.874;2022-07-23T02:40:04;100336.03;;;19.90;60.42
62942;BME280;49042;47.318;19.874;2022-07-23T02:43:06;100341.50;;;19.68;61.53
62942;BME280;49042;47.318;19.874;2022-07-23T02:46:08;100338.91;;;19.62;61.28
62942;BME280;49042;47.318;19.874;2022-07-23T02:49:09;100342.47;;;19.58;61.10
62942;BME280;49042;47.318;19.874;2022-07-23T02:52:11;100345.09;;;19.64;59.99
62942;BME280;49042;47.318;19.874;2022-07-23T02:55:13;100339.72;;;19.74;59.17
62942;BME280;49042;47.318;19.874;2022-07-23T02:58:15;100339.91;;;19.50;60.09
62942;BME280;49042;47.318;19.874;2022-07-23T03:01:17;100331.16;;;19.43;61.04
62942;BME280;49042;47.318;19.874;2022-07-23T03:04:21;100334.66;;;19.47;60.94
62942;BME280;49042;47.318;19.874;2022-07-23T03:07:23;100335.56;;;19.41;61.64
62942;BME280;49042;47.318;19.874;2022-07-23T03:10:25;100338.97;;;19.57;61.25
62942;BME280;49042;47.318;19.874;2022-07-23T03:13:27;100331.00;;;19.59;61.05
62942;BME280;49042;47.318;19.874;2022-07-23T03:16:29;100337.88;;;19.80;60.79
62942;BME280;49042;47.318;19.874;2022-07-23T03:19:31;100342.34;;;19.77;61.82
62942;BME280;49042;47.318;19.874;2022-07-23T03:22:32;100340.47;;;19.87;61.05
62942;BME280;49042;47.318;19.874;2022-07-23T03:25:34;100341.41;;;19.81;61.16
62942;BME280;49042;47.318;19.874;2022-07-23T03:28:36;100345.09;;;19.61;61.85
62942;BME280;49042;47.318;19.874;2022-07-23T03:31:38;100356.75;;;19.38;63.21
62942;BME280;49042;47.318;19.874;2022-07-23T03:34:40;100347.00;;;19.46;63.12
62942;BME280;49042;47.318;19.874;2022-07-23T03:37:43;100345.94;;;19.65;62.53
62942;BME280;49042;47.318;19.874;2022-07-23T03:40:47;100344.91;;;19.83;61.80
62942;BME280;49042;47.318;19.874;2022-07-23T03:43:49;100343.06;;;19.93;61.88
62942;BME280;49042;47.318;19.874;2022-07-23T03:46:51;100344.16;;;19.72;63.43
62942;BME280;49042;47.318;19.874;2022-07-23T03:49:53;100352.28;;;19.46;64.05
62942;BME280;49042;47.318;19.874;2022-07-23T03:52:54;100347.09;;;19.32;63.95
62942;BME280;49042;47.318;19.874;2022-07-23T03:55:56;100351.59;;;19.10;65.28
62942;BME280;49042;47.318;19.874;2022-07-23T03:58:58;100362.22;;;19.03;65.61
62942;BME280;49042;47.318;19.874;2022-07-23T04:02:00;100351.56;;;19.16;65.75
62942;BME280;49042;47.318;19.874;2022-07-23T04:05:03;100348.91;;;19.24;64.28
62942;BME280;49042;47.318;19.874;2022-07-23T04:08:06;100343.53;;;19.38;64.40
62942;BME280;49042;47.318;19.874;2022-07-23T04:11:07;100350.41;;;19.60;64.39
62942;BME280;49042;47.318;19.874;2022-07-23T04:14:09;100344.97;;;19.78;63.85
62942;BME280;49042;47.318;19.874;2022-07-23T04:17:12;100346.53;;;19.97;63.28
62942;BME280;49042;47.318;19.874;2022-07-23T04:20:14;100351.72;;;20.08;63.57
62942;BME280;49042;47.318;19.874;2022-07-23T04:23:15;100351.81;;;20.03;62.84
62942;BME280;49042;47.318;19.874;2022-07-23T04:26:21;100350.03;;;20.02;62.41
62942;BME280;49042;47.318;19.874;2022-07-23T04:29:23;100344.50;;;20.30;60.49
62942;BME280;49042;47.318;19.874;2022-07-23T04:32:29;100341.59;;;20.52;60.01
62942;BME280;49042;47.318;19.874;2022-07-23T04:35:34;100342.16;;;20.76;59.80
62942;BME280;49042;47.318;19.874;2022-07-23T04:38:38;100342.81;;;20.93;59.48
62942;BME280;49042;47.318;19.874;2022-07-23T04:41:40;100343.41;;;21.17;58.73
62942;BME280;49042;47.318;19.874;2022-07-23T04:44:41;100350.56;;;21.10;58.84
62942;BME280;49042;47.318;19.874;2022-07-23T04:47:43;100349.63;;;21.14;58.34
62942;BME280;49042;47.318;19.874;2022-07-23T04:50:45;100348.53;;;21.29;57.55
62942;BME280;49042;47.318;19.874;2022-07-23T04:53:48;100355.28;;;21.49;58.20
62942;BME280;49042;47.318;19.874;2022-07-23T04:56:51;100356.53;;;21.82;57.40
62942;BME280;49042;47.318;19.874;2022-07-23T04:59:53;100358.72;;;22.12;56.28
62942;BME280;49042;47.318;19.874;2022-07-23T05:02:54;100365.13;;;22.46;54.93
62942;BME280;49042;47.318;19.874;2022-07-23T05:05:56;100366.63;;;22.60;55.26
62942;BME280;49042;47.318;19.874;2022-07-23T05:09:01;100364.69;;;22.68;53.95
62942;BME280;49042;47.318;19.874;2022-07-23T05:12:04;100362.69;;;22.79;54.20
62942;BME280;49042;47.318;19.874;2022-07-23T05:15:06;100363.50;;;23.25;53.34
62942;BME280;49042;47.318;19.874;2022-07-23T05:18:08;100355.09;;;23.42;50.91
62942;BME280;49042;47.318;19.874;2022-07-23T05:21:10;100357.31;;;23.62;50.97
62942;BME280;49042;47.318;19.874;2022-07-23T05:24:12;100359.06;;;23.99;50.34
62942;BME280;49042;47.318;19.874;2022-07-23T05:27:13;100364.91;;;24.12;49.63
62942;BME280;49042;47.318;19.874;2022-07-23T05:30:15;100360.88;;;24.30;49.54
62942;BME280;49042;47.318;19.874;2022-07-23T05:33:20;100359.69;;;24.09;50.24
62942;BME280;49042;47.318;19.874;2022-07-23T05:36:22;100361.00;;;24.25;49.88
62942;BME280;49042;47.318;19.874;2022-07-23T05:39:24;100359.56;;;24.45;49.32
62942;BME280;49042;47.318;19.874;2022-07-23T05:42:25;100359.84;;;24.68;48.38
62942;BME280;49042;47.318;19.874;2022-07-23T05:45:27;100363.00;;;24.81;48.24
62942;BME280;49042;47.318;19.874;2022-07-23T05:48:29;100355.25;;;24.73;48.04
62942;BME280;49042;47.318;19.874;2022-07-23T05:51:31;100353.56;;;24.99;47.87
62942;BME280;49042;47.318;19.874;2022-07-23T05:54:36;100362.47;;;24.98;47.87
62942;BME280;49042;47.318;19.874;2022-07-23T05:57:38;100364.69;;;25.16;47.74
62942;BME280;49042;47.318;19.874;2022-07-23T06:00:40;100364.09;;;25.04;48.03
62942;BME280;49042;47.318;19.874;2022-07-23T06:03:41;100362.28;;;25.35;46.86
62942;BME280;49042;47.318;19.874;2022-07-23T06:06:43;100366.59;;;25.39;47.31
62942;BME280;49042;47.318;19.874;2022-07-23T06:09:45;100371.12;;;25.64;45.54
62942;BME280;49042;47.318;19.874;2022-07-23T06:12:48;100373.88;;;25.90;45.63
62942;BME280;49042;47.318;19.874;2022-07-23T06:15:50;100360.88;;;26.05;44.94
62942;BME280;49042;47.318;19.874;2022-07-23T06:18:52;100365.53;;;26.25;44.48
62942;BME280;49042;47.318;19.874;2022-07-23T06:21:53;100365.84;;;26.40;44.80
62942;BME280;49042;47.318;19.874;2022-07-23T06:24:55;100354.97;;;26.70;44.08
62942;BME280;49042;47.318;19.874;2022-07-23T06:27:57;100357.88;;;26.88;43.61
62942;BME280;49042;47.318;19.874;2022-07-23T06:30:59;100359.63;;;27.12;43.55
62942;BME280;49042;47.318;19.874;2022-07-23T06:34:02;100355.41;;;27.06;43.29
62942;BME280;49042;47.318;19.874;2022-07-23T06:37:05;100352.94;;;26.77;43.24
62942;BME280;49042;47.318;19.874;2022-07-23T06:40:07;100353.81;;;27.00;43.27
62942;BME280;49042;47.318;19.874;2022-07-23T06:43:09;100358.06;;;27.06;42.14
62942;BME280;49042;47.318;19.874;2022-07-23T06:46:14;100364.31;;;27.29;42.44
62942;BME280;49042;47.318;19.874;2022-07-23T06:49:16;100356.03;;;27.79;41.48
62942;BME280;49042;47.318;19.874;2022-07-23T06:52:17;100354.66;;;27.91;40.63
62942;BME280;49042;47.318;19.874;2022-07-23T06:55:20;100352.34;;;28.23;40.09
62942;BME280;49042;47.318;19.874;2022-07-23T06:58:21;100351.94;;;28.33;40.11
62942;BME280;49042;47.318;19.874;2022-07-23T07:01:23;100355.63;;;28.51;39.67
62942;BME280;49042;47.318;19.874;2022-07-23T07:04:25;100348.00;;;28.61;39.73
62942;BME280;49042;47.318;19.874;2022-07-23T07:07:27;100349.47;;;28.69;39.33
62942;BME280;49042;47.318;19.874;2022-07-23T07:10:28;100350.69;;;29.00;39.29
62942;BME280;49042;47.318;19.874;2022-07-23T07:13:30;100351.88;;;29.12;39.19
62942;BME280;49042;47.318;19.874;2022-07-23T07:16:32;100349.88;;;29.17;38.34
62942;BME280;49042;47.318;19.874;2022-07-23T07:19:34;100347.41;;;29.50;37.53
62942;BME280;49042;47.318;19.874;2022-07-23T07:22:36;100335.06;;;29.46;37.81
62942;BME280;49042;47.318;19.874;2022-07-23T07:25:37;100341.56;;;29.77;37.34
62942;BME280;49042;47.318;19.874;2022-07-23T07:28:39;100334.50;;;30.10;36.17
62942;BME280;49042;47.318;19.874;2022-07-23T07:31:41;100340.31;;;30.19;35.79
62942;BME280;49042;47.318;19.874;2022-07-23T07:34:43;100340.53;;;30.32;35.31
62942;BME280;49042;47.318;19.874;2022-07-23T07:37:45;100342.81;;;30.40;35.64
62942;BME280;49042;47.318;19.874;2022-07-23T07:40:47;100348.56;;;30.50;34.96
62942;BME280;49042;47.318;19.874;2022-07-23T07:43:50;100345.31;;;30.77;33.09
62942;BME280;49042;47.318;19.874;2022-07-23T07:46:52;100339.03;;;30.93;32.05
62942;BME280;49042;47.318;19.874;2022-07-23T07:49:54;100348.53;;;31.00;32.40
62942;BME280;49042;47.318;19.874;2022-07-23T07:52:57;100338.34;;;31.21;32.30
62942;BME280;49042;47.318;19.874;2022-07-23T07:55:58;100342.16;;;31.34;32.82
62942;BME280;49042;47.318;19.874;2022-07-23T07:59:00;100333.13;;;31.49;33.02
62942;BME280;49042;47.318;19.874;2022-07-23T08:02:02;100333.06;;;31.82;31.99
62942;BME280;49042;47.318;19.874;2022-07-23T08:05:05;100327.09;;;32.06;31.93
62942;BME280;49042;47.318;19.874;2022-07-23T08:08:06;100321.06;;;32.17;31.81
62942;BME280;49042;47.318;19.874;2022-07-23T08:11:11;100324.59;;;32.03;30.18
62942;BME280;49042;47.318;19.874;2022-07-23T08:14:13;100323.41;;;32.80;28.93
62942;BME280;49042;47.318;19.874;2022-07-23T08:17:14;100323.56;;;33.20;29.99
62942;BME280;49042;47.318;19.874;2022-07-23T08:20:18;100324.44;;;33.74;28.66
62942;BME280;49042;47.318;19.874;2022-07-23T08:23:21;100316.88;;;34.19;27.75
62942;BME280;49042;47.318;19.874;2022-07-23T08:26:30;100322.47;;;34.93;26.32
62942;BME280;49042;47.318;19.874;2022-07-23T08:29:31;100324.25;;;35.30;25.52
62942;BME280;49042;47.318;19.874;2022-07-23T08:32:33;100316.44;;;35.25;24.87
62942;BME280;49042;47.318;19.874;2022-07-23T08:35:47;100307.94;;;35.66;25.70
62942;BME280;49042;47.318;19.874;2022-07-23T08:38:49;100312.41;;;36.71;24.34
62942;BME280;49042;47.318;19.874;2022-07-23T08:41:51;100311.63;;;37.47;22.13
62942;BME280;49042;47.318;19.874;2022-07-23T08:44:53;100309.03;;;37.45;23.10
62942;BME280;49042;47.318;19.874;2022-07-23T08:47:56;100303.28;;;38.13;22.34
62942;BME280;49042;47.318;19.874;2022-07-23T08:51:06;100302.88;;;37.65;21.93
62942;BME280;49042;47.318;19.874;2022-07-23T08:54:09;100304.56;;;38.60;21.76
62942;BME280;49042;47.318;19.874;2022-07-23T08:57:10;100303.44;;;39.53;20.11
62942;BME280;49042;47.318;19.874;2022-07-23T09:00:13;100298.69;;;38.85;20.98
62942;BME280;49042;47.318;19.874;2022-07-23T09:03:21;100305.91;;;39.06;20.13
62942;BME280;49042;47.318;19.874;2022-07-23T09:06:23;100309.72;;;40.11;19.50
62942;BME280;49042;47.318;19.874;2022-07-23T09:09:25;100312.25;;;40.98;18.58
62942;BME280;49042;47.318;19.874;2022-07-23T09:12:31;100309.16;;;43.29;15.90
62942;BME280;49042;47.318;19.874;2022-07-23T09:15:48;100319.28;;;43.28;16.46
62942;BME280;49042;47.318;19.874;2022-07-23T09:18:59;100304.94;;;42.49;16.19
62942;BME280;49042;47.318;19.874;2022-07-23T09:22:17;100306.53;;;44.18;16.45
62942;BME280;49042;47.318;19.874;2022-07-23T09:25:24;100313.91;;;46.20;12.85
62942;BME280;49042;47.318;19.874;2022-07-23T09:28:26;100316.25;;;46.01;13.16
62942;BME280;49042;47.318;19.874;2022-07-23T09:31:54;100306.94;;;47.56;12.81
62942;BME280;49042;47.318;19.874;2022-07-23T09:34:56;100299.62;;;47.77;12.12
62942;BME280;49042;47.318;19.874;2022-07-23T09:38:02;100294.22;;;47.04;13.53
62942;BME280;49042;47.318;19.874;2022-07-23T09:41:11;100290.00;;;47.66;12.50
62942;BME280;49042;47.318;19.874;2022-07-23T09:44:18;100298.66;;;47.92;11.33
62942;BME280;49042;47.318;19.874;2022-07-23T09:47:32;100296.41;;;47.09;11.93
62942;BME280;49042;47.318;19.874;2022-07-23T09:50:34;100298.37;;;45.51;13.40
62942;BME280;49042;47.318;19.874;2022-07-23T09:53:35;100291.22;;;45.87;13.16
62942;BME280;49042;47.318;19.874;2022-07-23T09:56:38;100285.72;;;46.77;12.19
62942;BME280;49042;47.318;19.874;2022-07-23T09:59:43;100294.09;;;47.42;11.89
62942;BME280;49042;47.318;19.874;2022-07-23T10:02:45;100276.78;;;48.87;10.66
62942;BME280;49042;47.318;19.874;2022-07-23T10:05:48;100291.66;;;47.61;11.47
62942;BME280;49042;47.318;19.874;2022-07-23T10:08:52;100288.13;;;46.87;11.85
62942;BME280;49042;47.318;19.874;2022-07-23T10:11:59;100286.88;;;49.62;10.04
62942;BME280;49042;47.318;19.874;2022-07-23T10:15:19;100279.19;;;50.89;9.40
62942;BME280;49042;47.318;19.874;2022-07-23T10:18:21;100284.50;;;51.35;9.89
62942;BME280;49042;47.318;19.874;2022-07-23T10:21:48;100282.16;;;51.58;8.89
62942;BME280;49042;47.318;19.874;2022-07-23T10:25:20;100282.94;;;52.27;8.68
62942;BME280;49042;47.318;19.874;2022-07-23T10:32:37;100267.47;;;47.05;12.69
62942;BME280;49042;47.318;19.874;2022-07-23T10:39:05;100265.25;;;45.90;12.68
62942;BME280;49042;47.318;19.874;2022-07-23T10:42:15;100252.91;;;43.98;13.77
62942;BME280;49042;47.318;19.874;2022-07-23T10:45:34;100261.13;;;42.91;14.63
62942;BME280;49042;47.318;19.874;2022-07-23T10:48:37;100247.75;;;42.02;16.39
62942;BME280;49042;47.318;19.874;2022-07-23T10:58:46;100242.62;;;40.74;17.50
62942;BME280;49042;47.318;19.874;2022-07-23T11:01:48;100238.50;;;40.51;17.81
62942;BME280;49042;47.318;19.874;2022-07-23T11:04:53;100227.78;;;40.58;17.44
62942;BME280;49042;47.318;19.874;2022-07-23T11:14:07;100219.84;;;38.93;18.89
62942;BME280;49042;47.318;19.874;2022-07-23T11:17:21;100212.97;;;39.57;18.38
62942;BME280;49042;47.318;19.874;2022-07-23T11:20:23;100213.69;;;39.59;18.26
62942;BME280;49042;47.318;19.874;2022-07-23T11:27:01;100201.47;;;39.15;19.27
62942;BME280;49042;47.318;19.874;2022-07-23T11:30:03;100201.84;;;39.20;19.26
62942;BME280;49042;47.318;19.874;2022-07-23T11:36:09;100197.41;;;39.29;18.27
62942;BME280;49042;47.318;19.874;2022-07-23T11:39:10;100190.00;;;38.82;20.68
62942;BME280;49042;47.318;19.874;2022-07-23T11:42:18;100183.91;;;39.28;19.54
62942;BME280;49042;47.318;19.874;2022-07-23T11:45:21;100182.66;;;39.02;18.58
62942;BME280;49042;47.318;19.874;2022-07-23T11:48:26;100183.19;;;38.06;19.73
62942;BME280;49042;47.318;19.874;2022-07-23T11:51:28;100186.06;;;38.05;20.41
62942;BME280;49042;47.318;19.874;2022-07-23T11:54:30;100176.41;;;38.52;19.31
62942;BME280;49042;47.318;19.874;2022-07-23T11:57:40;100177.62;;;38.87;19.49
62942;BME280;49042;47.318;19.874;2022-07-23T12:00:42;100168.19;;;39.02;18.75
62942;BME280;49042;47.318;19.874;2022-07-23T12:03:49;100166.25;;;39.32;18.52
62942;BME280;49042;47.318;19.874;2022-07-23T12:06:52;100170.69;;;39.33;18.41
62942;BME280;49042;47.318;19.874;2022-07-23T12:09:55;100165.97;;;39.25;18.16
62942;BME280;49042;47.318;19.874;2022-07-23T12:13:00;100159.84;;;39.13;18.08
62942;BME280;49042;47.318;19.874;2022-07-23T12:16:02;100156.72;;;38.98;18.34
62942;BME280;49042;47.318;19.874;2022-07-23T12:19:06;100157.12;;;39.03;17.93
62942;BME280;49042;47.318;19.874;2022-07-23T12:22:08;100150.16;;;38.51;17.90
62942;BME280;49042;47.318;19.874;2022-07-23T12:25:13;100146.53;;;38.70;18.52
62942;BME280;49042;47.318;19.874;2022-07-23T12:28:17;100130.16;;;39.48;17.62
62942;BME280;49042;47.318;19.874;2022-07-23T12:31:26;100125.69;;;39.76;17.18
62942;BME280;49042;47.318;19.874;2022-07-23T12:34:28;100124.19;;;39.63;18.52
62942;BME280;49042;47.318;19.874;2022-07-23T12:37:34;100120.94;;;40.06;17.25
62942;BME280;49042;47.318;19.874;2022-07-23T12:43:55;100109.94;;;40.53;16.12
62942;BME280;49042;47.318;19.874;2022-07-23T12:46:57;100116.09;;;41.35;14.80
62942;BME280;49042;47.318;19.874;2022-07-23T12:49:59;100107.31;;;42.19;14.04
62942;BME280;49042;47.318;19.874;2022-07-23T12:53:18;100102.19;;;42.57;14.02
62942;BME280;49042;47.318;19.874;2022-07-23T12:56:30;100101.50;;;41.61;14.66
62942;BME280;49042;47.318;19.874;2022-07-23T12:59:32;100101.59;;;42.87;13.37
62942;BME280;49042;47.318;19.874;2022-07-23T13:02:47;100098.09;;;44.15;12.42
62942;BME280;49042;47.318;19.874;2022-07-23T13:05:49;100097.03;;;45.39;12.08
62942;BME280;49042;47.318;19.874;2022-07-23T13:08:50;100095.19;;;47.70;10.55
62942;BME280;49042;47.318;19.874;2022-07-23T13:11:55;100092.91;;;48.56;10.05
62942;BME280;49042;47.318;19.874;2022-07-23T13:15:17;100094.50;;;50.49;9.01
62942;BME280;49042;47.318;19.874;2022-07-23T13:18:19;100095.44;;;50.10;8.30
62942;BME280;49042;47.318;19.874;2022-07-23T13:21:21;100096.53;;;48.63;8.83
62942;BME280;49042;47.318;19.874;2022-07-23T13:24:24;100081.41;;;47.77;9.45
62942;BME280;49042;47.318;19.874;2022-07-23T13:27:26;100083.34;;;48.59;8.86
62942;BME280;49042;47.318;19.874;2022-07-23T13:30:28;100094.16;;;49.47;8.29
62942;BME280;49042;47.318;19.874;2022-07-23T13:33:30;100086.97;;;48.59;8.95
62942;BME280;49042;47.318;19.874;2022-07-23T13:36:33;100088.63;;;48.81;8.55
62942;BME280;49042;47.318;19.874;2022-07-23T13:39:35;100089.91;;;50.10;7.89
62942;BME280;49042;47.318;19.874;2022-07-23T13:42:40;100081.44;;;49.72;8.08
62942;BME280;49042;47.318;19.874;2022-07-23T13:45:42;100090.09;;;49.50;8.16
62942;BME280;49042;47.318;19.874;2022-07-23T13:48:44;100075.50;;;51.09;7.28
62942;BME280;49042;47.318;19.874;2022-07-23T13:51:48;100075.34;;;50.66;7.64
62942;BME280;49042;47.318;19.874;2022-07-23T13:54:50;100069.56;;;51.24;7.75
62942;BME280;49042;47.318;19.874;2022-07-23T13:57:52;100075.88;;;50.75;8.33
62942;BME280;49042;47.318;19.874;2022-07-23T14:00:53;100068.31;;;50.82;7.88
62942;BME280;49042;47.318;19.874;2022-07-23T14:03:55;100056.97;;;52.20;7.83
62942;BME280;49042;47.318;19.874;2022-07-23T14:06:58;100050.69;;;52.73;7.38
62942;BME280;49042;47.318;19.874;2022-07-23T14:09:59;100050.19;;;53.99;6.96
62942;BME280;49042;47.318;19.874;2022-07-23T14:13:02;100055.78;;;51.60;6.39
62942;BME280;49042;47.318;19.874;2022-07-23T14:16:04;100049.00;;;52.35;6.25
62942;BME280;49042;47.318;19.874;2022-07-23T14:19:06;100047.78;;;52.07;6.82
62942;BME280;49042;47.318;19.874;2022-07-23T14:22:08;100047.03;;;50.12;7.40
62942;BME280;49042;47.318;19.874;2022-07-23T14:25:10;100045.62;;;50.48;7.54
62942;BME280;49042;47.318;19.874;2022-07-23T14:28:12;100041.38;;;50.26;7.63
62942;BME280;49042;47.318;19.874;2022-07-23T14:31:14;100034.13;;;50.88;7.34
62942;BME280;49042;47.318;19.874;2022-07-23T14:34:22;100021.22;;;48.54;8.48
62942;BME280;49042;47.318;19.874;2022-07-23T14:37:28;100013.03;;;48.94;8.35
62942;BME280;49042;47.318;19.874;2022-07-23T14:40:32;100005.69;;;48.67;8.57
62942;BME280;49042;47.318;19.874;2022-07-23T14:43:34;100005.97;;;47.84;8.98
62942;BME280;49042;47.318;19.874;2022-07-23T14:46:39;99999.91;;;46.40;9.86
62942;BME280;49042;47.318;19.874;2022-07-23T14:49:41;99992.38;;;44.11;11.78
62942;BME280;49042;47.318;19.874;2022-07-23T14:52:49;99986.37;;;42.64;12.87
62942;BME280;49042;47.318;19.874;2022-07-23T14:55:50;99984.81;;;41.43;13.51
62942;BME280;49042;47.318;19.874;2022-07-23T14:58:52;99976.28;;;41.47;13.49
62942;BME280;49042;47.318;19.874;2022-07-23T15:01:58;99967.72;;;41.33;14.28
62942;BME280;49042;47.318;19.874;2022-07-23T15:05:00;99959.53;;;41.58;14.34
62942;BME280;49042;47.318;19.874;2022-07-23T15:08:08;99960.47;;;40.45;14.85
62942;BME280;49042;47.318;19.874;2022-07-23T15:11:10;99946.66;;;40.46;14.72
62942;BME280;49042;47.318;19.874;2022-07-23T15:14:12;99939.63;;;40.17;14.94
62942;BME280;49042;47.318;19.874;2022-07-23T15:17:28;99943.50;;;40.33;15.10
62942;BME280;49042;47.318;19.874;2022-07-23T15:20:30;99936.78;;;40.54;14.89
62942;BME280;49042;47.318;19.874;2022-07-23T15:23:36;99939.16;;;40.49;14.97
62942;BME280;49042;47.318;19.874;2022-07-23T15:26:41;99939.63;;;40.17;15.24
62942;BME280;49042;47.318;19.874;2022-07-23T15:29:46;99942.25;;;39.64;15.17
62942;BME280;49042;47.318;19.874;2022-07-23T15:32:48;99940.00;;;39.59;15.65
62942;BME280;49042;47.318;19.874;2022-07-23T15:35:50;99945.63;;;39.39;15.43
62942;BME280;49042;47.318;19.874;2022-07-23T15:38:54;99939.66;;;39.25;15.57
62942;BME280;49042;47.318;19.874;2022-07-23T15:41:55;99941.66;;;39.05;16.67
62942;BME280;49042;47.318;19.874;2022-07-23T15:44:58;99947.19;;;38.37;16.73
62942;BME280;49042;47.318;19.874;2022-07-23T15:48:00;99943.78;;;38.24;17.14
62942;BME280;49042;47.318;19.874;2022-07-23T15:51:05;99943.56;;;37.98;17.34
62942;BME280;49042;47.318;19.874;2022-07-23T15:54:08;99940.66;;;37.89;17.37
62942;BME280;49042;47.318;19.874;2022-07-23T15:57:10;99945.97;;;37.81;17.72
62942;BME280;49042;47.318;19.874;2022-07-23T16:00:12;99940.50;;;37.71;17.17
62942;BME280;49042;47.318;19.874;2022-07-23T16:03:14;99939.03;;;37.27;17.68
62942;BME280;49042;47.318;19.874;2022-07-23T16:06:16;99947.31;;;37.15;18.50
62942;BME280;49042;47.318;19.874;2022-07-23T16:09:19;99947.47;;;36.82;18.67
62942;BME280;49042;47.318;19.874;2022-07-23T16:12:21;99953.22;;;36.89;20.39
62942;BME280;49042;47.318;19.874;2022-07-23T16:15:23;99954.53;;;36.63;20.60
62942;BME280;49042;47.318;19.874;2022-07-23T16:18:25;99954.44;;;36.22;23.14
62942;BME280;49042;47.318;19.874;2022-07-23T16:21:27;99960.69;;;36.01;24.01